createdAt,value
2022-11-03T00:01:46.566Z,2.50
2022-11-03T00:04:16.474Z,3.33
2022-11-03T00:06:44.853Z,2.28
2022-11-03T00:09:14.038Z,2.45
2022-11-03T00:11:42.528Z,2.67
2022-11-03T00:14:10.340Z,2.65
2022-11-03T00:16:38.036Z,2.38
2022-11-03T00:19:05.726Z,2.53
2022-11-03T00:21:32.847Z,2.92
2022-11-03T00:24:02.303Z,2.90
2022-11-03T00:26:30.799Z,2.67
2022-11-03T00:29:05.689Z,2.20
2022-11-03T00:31:34.810Z,2.50
2022-11-03T00:34:02.648Z,2.65
2022-11-03T00:36:34.890Z,2.33
2022-11-03T00:39:02.106Z,2.75
2022-11-03T00:41:28.768Z,2.00
2022-11-03T00:43:55.976Z,2.20
2022-11-03T00:46:24.216Z,2.50
2022-11-03T00:48:51.454Z,2.30
2022-11-03T00:51:33.425Z,2.40
2022-11-03T00:54:02.300Z,1.85
2022-11-03T00:56:30.138Z,2.40
2022-11-03T00:58:58.542Z,2.70
2022-11-03T01:01:46.692Z,2.60
2022-11-03T01:04:36.888Z,2.75
2022-11-03T01:07:05.717Z,2.05
2022-11-03T01:09:37.250Z,2.38
2022-11-03T01:12:08.875Z,2.50
2022-11-03T01:14:50.236Z,2.00
2022-11-03T01:17:23.249Z,1.85
2022-11-03T01:19:50.904Z,2.38
2022-11-03T01:22:18.542Z,2.42
2022-11-03T01:24:46.657Z,2.85
2022-11-03T01:27:19.881Z,2.70
2022-11-03T01:29:46.768Z,2.25
2022-11-03T01:32:13.498Z,2.30
2022-11-03T01:34:40.828Z,1.98
2022-11-03T01:37:07.715Z,1.90
2022-11-03T01:39:34.920Z,2.13
2022-11-03T01:42:01.893Z,1.90
2022-11-03T01:44:40.989Z,2.88
2022-11-03T01:47:39.230Z,2.85
2022-11-03T01:50:08.180Z,2.15
2022-11-03T01:52:48.929Z,2.60
2022-11-03T01:55:37.534Z,2.55
2022-11-03T01:58:09.270Z,2.30
2022-11-03T02:00:36.392Z,2.80
2022-11-03T02:03:04.026Z,2.55
2022-11-03T02:05:31.130Z,2.13
2022-11-03T02:08:12.136Z,2.38
2022-11-03T02:10:39.055Z,2.03
2022-11-03T02:13:17.992Z,2.72
2022-11-03T02:15:46.186Z,2.35
2022-11-03T02:18:13.759Z,2.03
2022-11-03T02:20:42.396Z,2.70
2022-11-03T02:23:19.670Z,2.20
2022-11-03T02:26:02.894Z,1.83
2022-11-03T02:28:31.884Z,2.42
2022-11-03T02:31:11.493Z,2.22
2022-11-03T02:34:05.038Z,2.10
2022-11-03T02:36:51.844Z,2.60
2022-11-03T02:39:32.630Z,1.73
2022-11-03T02:42:01.704Z,2.20
2022-11-03T02:44:29.305Z,2.40
2022-11-03T02:46:59.385Z,2.58
2022-11-03T02:49:27.131Z,2.95
2022-11-03T02:52:04.934Z,2.28
2022-11-03T02:54:44.373Z,2.53
2022-11-03T02:57:21.813Z,3.08
2022-11-03T03:00:06.394Z,2.88
2022-11-03T03:02:42.255Z,2.72
2022-11-03T03:05:13.717Z,2.35
2022-11-03T03:07:46.187Z,1.67
2022-11-03T03:12:52.050Z,2.40
2022-11-03T03:15:23.525Z,2.25
2022-11-03T03:17:57.242Z,2.00
2022-11-03T03:20:47.567Z,2.20
2022-11-03T03:23:25.262Z,1.98
2022-11-03T03:26:18.891Z,2.20
2022-11-03T03:28:59.637Z,1.98
2022-11-03T03:31:29.589Z,1.77
2022-11-03T03:34:04.314Z,2.28
2022-11-03T03:36:39.633Z,2.28
2022-11-03T03:39:08.094Z,1.98
2022-11-03T03:41:36.813Z,2.20
2022-11-03T03:44:07.416Z,1.88
2022-11-03T03:46:43.343Z,2.58
2022-11-03T03:49:10.197Z,2.25
2022-11-03T03:51:37.967Z,1.83
2022-11-03T03:54:04.864Z,2.70
2022-11-03T03:56:42.593Z,1.98
2022-11-03T03:59:09.446Z,2.22
2022-11-03T04:01:36.397Z,2.00
2022-11-03T04:04:03.427Z,1.92
2022-11-03T04:06:30.055Z,2.22
2022-11-03T04:08:56.724Z,2.50
2022-11-03T04:11:42.150Z,3.00
2022-11-03T04:14:28.313Z,2.58
2022-11-03T04:17:13.884Z,2.17
2022-11-03T04:19:59.139Z,2.38
2022-11-03T04:22:31.150Z,2.58
2022-11-03T04:24:58.578Z,2.35
2022-11-03T04:27:30.000Z,2.65
2022-11-03T04:30:01.549Z,2.42
2022-11-03T04:32:29.642Z,2.30
2022-11-03T04:34:56.638Z,2.60
2022-11-03T04:37:23.273Z,2.28
2022-11-03T04:39:49.945Z,2.47
2022-11-03T04:42:22.476Z,1.98
2022-11-03T04:47:17.773Z,2.83
2022-11-03T04:49:46.932Z,2.45
2022-11-03T04:52:22.588Z,2.22
2022-11-03T04:54:52.765Z,1.95
2022-11-03T04:57:19.496Z,2.00
2022-11-03T04:59:49.634Z,1.80
2022-11-03T05:02:21.409Z,1.90
2022-11-03T05:04:48.265Z,2.50
2022-11-03T05:07:45.009Z,2.30
2022-11-03T05:10:16.188Z,2.30
2022-11-03T05:12:43.527Z,2.30
2022-11-03T05:15:43.428Z,2.60
2022-11-03T05:18:27.170Z,2.22
2022-11-03T05:21:03.240Z,1.80
2022-11-03T05:23:36.482Z,1.85
2022-11-03T05:26:04.610Z,2.30
2022-11-03T05:28:37.586Z,2.38
2022-11-03T05:31:18.014Z,2.20
2022-11-03T05:33:47.198Z,2.15
2022-11-03T05:36:22.298Z,2.22
2022-11-03T05:38:49.291Z,2.33
2022-11-03T05:41:25.939Z,2.47
2022-11-03T05:44:10.098Z,2.53
2022-11-03T05:46:37.791Z,2.50
2022-11-03T05:49:07.430Z,2.13
2022-11-03T05:51:44.213Z,2.78
2022-11-03T05:54:22.367Z,2.60
2022-11-03T05:56:49.734Z,2.03
2022-11-03T05:59:20.258Z,3.13
2022-11-03T06:01:47.127Z,2.15
2022-11-03T06:04:17.039Z,2.10
2022-11-03T06:06:53.930Z,2.53
2022-11-03T06:09:24.462Z,2.20
2022-11-03T06:11:53.685Z,1.95
2022-11-03T06:14:24.471Z,2.30
2022-11-03T06:17:05.851Z,2.15
2022-11-03T06:19:39.321Z,2.80
2022-11-03T06:22:18.401Z,1.95
2022-11-03T06:24:45.704Z,2.30
2022-11-03T06:27:23.855Z,2.58
2022-11-03T06:29:55.882Z,2.45
2022-11-03T06:32:22.691Z,2.40
2022-11-03T06:34:52.090Z,2.47
2022-11-03T06:37:25.681Z,2.28
2022-11-03T06:39:59.825Z,2.47
2022-11-03T06:42:31.891Z,2.20
2022-11-03T06:47:28.098Z,2.40
2022-11-03T06:49:59.564Z,2.40
2022-11-03T06:52:30.930Z,2.03
2022-11-03T06:55:16.672Z,2.10
2022-11-03T06:57:46.621Z,2.00
2022-11-03T07:03:25.312Z,2.22
2022-11-03T07:06:17.952Z,2.15
2022-11-03T07:08:56.330Z,2.45
2022-11-03T07:11:25.916Z,2.70
2022-11-03T07:14:04.223Z,2.28
2022-11-03T07:16:42.463Z,2.20
2022-11-03T07:19:33.233Z,2.67
2022-11-03T07:22:02.591Z,1.85
2022-11-03T07:24:32.785Z,2.03
2022-11-03T07:27:15.473Z,2.58
2022-11-03T07:32:19.793Z,2.00
2022-11-03T07:34:48.028Z,2.00
2022-11-03T07:37:23.066Z,2.22
2022-11-03T07:39:51.152Z,2.55
2022-11-03T07:42:20.719Z,2.63
2022-11-03T07:44:48.651Z,1.77
2022-11-03T07:47:19.993Z,1.88
2022-11-03T07:49:47.290Z,2.53
2022-11-03T07:52:16.474Z,2.30
2022-11-03T07:54:43.173Z,2.38
2022-11-03T07:57:19.294Z,2.30
2022-11-03T07:59:48.906Z,2.20
2022-11-03T08:02:32.017Z,2.17
2022-11-03T08:04:59.245Z,2.63
2022-11-03T08:07:28.137Z,2.50
2022-11-03T08:09:55.232Z,2.17
2022-11-03T08:12:22.202Z,2.90
2022-11-03T08:14:48.928Z,2.63
2022-11-03T08:17:15.714Z,3.05
2022-11-03T08:19:42.865Z,2.08
2022-11-03T08:22:09.524Z,2.08
2022-11-03T08:24:36.197Z,2.53
2022-11-03T08:27:03.490Z,2.20
2022-11-03T08:29:30.408Z,2.70
2022-11-03T08:31:57.043Z,2.38
2022-11-03T08:34:23.680Z,2.28
2022-11-03T08:36:50.328Z,2.67
2022-11-03T08:39:17.327Z,2.28
2022-11-03T08:41:43.989Z,2.40
2022-11-03T08:44:10.670Z,2.95
2022-11-03T08:46:37.510Z,2.45
2022-11-03T08:49:04.208Z,2.50
2022-11-03T08:51:30.919Z,2.45
2022-11-03T08:53:57.557Z,2.72
2022-11-03T08:56:24.273Z,2.60
2022-11-03T08:58:51.047Z,2.00
2022-11-03T09:01:17.826Z,2.60
2022-11-03T09:03:47.110Z,2.80
2022-11-03T09:06:13.872Z,2.28
2022-11-03T09:11:27.224Z,2.90
2022-11-03T09:13:54.153Z,2.40
2022-11-03T09:16:20.813Z,2.13
2022-11-03T09:18:47.558Z,3.03
2022-11-03T09:21:14.745Z,2.78
2022-11-03T09:23:41.508Z,2.78
2022-11-03T09:26:08.150Z,2.38
2022-11-03T09:28:34.773Z,2.35
2022-11-03T09:31:01.418Z,3.33
2022-11-03T09:33:28.045Z,2.30
2022-11-03T09:35:54.739Z,2.33
2022-11-03T09:38:21.357Z,3.28
2022-11-03T09:43:14.845Z,2.60
2022-11-03T09:45:41.563Z,2.65
2022-11-03T09:48:12.939Z,3.00
2022-11-03T09:50:39.997Z,2.95
2022-11-03T09:53:09.327Z,2.25
2022-11-03T09:55:36.759Z,2.45
2022-11-03T09:58:12.849Z,2.53
2022-11-03T10:00:39.948Z,2.42
2022-11-03T10:03:10.620Z,2.42
2022-11-03T10:05:38.652Z,2.58
2022-11-03T10:08:22.439Z,2.40
2022-11-03T10:10:52.650Z,2.53
2022-11-03T10:13:45.940Z,2.30
2022-11-03T10:16:17.003Z,2.60
2022-11-03T10:18:43.953Z,3.10
2022-11-03T10:21:21.062Z,2.33
2022-11-03T10:23:50.127Z,2.30
2022-11-03T10:26:19.739Z,2.35
2022-11-03T10:29:08.737Z,3.13
2022-11-03T10:31:42.469Z,2.58
2022-11-03T10:34:35.238Z,2.20
2022-11-03T10:39:40.568Z,3.50
2022-11-03T10:42:21.407Z,2.50
2022-11-03T10:44:51.462Z,2.50
2022-11-03T10:47:33.720Z,2.35
2022-11-03T10:50:20.508Z,2.38
2022-11-03T10:52:47.425Z,2.33
2022-11-03T10:55:14.185Z,2.40
2022-11-03T10:57:41.161Z,2.58
2022-11-03T11:00:13.012Z,2.17
2022-11-03T11:02:42.502Z,1.80
2022-11-03T11:05:23.681Z,2.08
2022-11-03T11:07:52.151Z,2.20
2022-11-03T11:10:25.038Z,2.65
2022-11-03T11:13:13.809Z,2.20
2022-11-03T11:15:49.152Z,2.15
2022-11-03T11:18:27.759Z,2.13
2022-11-03T11:21:21.471Z,2.00
2022-11-03T11:23:49.456Z,2.25
2022-11-03T11:26:18.225Z,2.03
2022-11-03T11:28:47.146Z,1.95
2022-11-03T11:31:32.533Z,2.00
2022-11-03T11:34:18.203Z,2.25
2022-11-03T11:36:47.405Z,1.95
2022-11-03T11:39:23.181Z,2.28
2022-11-03T11:42:08.412Z,2.13
2022-11-03T11:44:46.030Z,1.98
2022-11-03T11:47:31.288Z,1.60
2022-11-03T11:50:07.126Z,2.30
2022-11-03T11:52:50.028Z,1.70
2022-11-03T11:55:31.166Z,2.53
2022-11-03T11:58:00.493Z,2.30
2022-11-03T12:00:30.445Z,2.22
2022-11-03T12:02:59.444Z,1.70
2022-11-03T12:05:28.893Z,2.10
2022-11-03T12:07:56.132Z,2.17
2022-11-03T12:10:29.089Z,2.13
2022-11-03T12:12:56.913Z,2.00
2022-11-03T12:16:01.994Z,2.20
2022-11-03T12:18:49.294Z,1.85
2022-11-03T12:21:48.264Z,1.67
2022-11-03T12:24:33.055Z,1.98
2022-11-03T12:27:00.992Z,2.83
2022-11-03T12:29:27.811Z,2.28
2022-11-03T12:31:54.463Z,1.75
2022-11-03T12:34:21.780Z,2.03
2022-11-03T12:36:53.177Z,1.70
2022-11-03T12:39:23.559Z,2.50
2022-11-03T12:41:50.200Z,1.38
2022-11-03T12:44:17.030Z,1.50
2022-11-03T12:46:43.739Z,1.95
2022-11-03T12:49:10.364Z,1.80
2022-11-03T12:51:36.975Z,1.88
2022-11-03T12:54:03.678Z,1.83
2022-11-03T12:56:30.425Z,1.63
2022-11-03T12:58:57.119Z,1.90
2022-11-03T13:01:23.931Z,2.05
2022-11-03T13:03:50.742Z,2.10
2022-11-03T13:06:17.381Z,1.95
2022-11-03T13:08:45.694Z,1.85
2022-11-03T13:11:34.739Z,2.03
2022-11-03T13:14:01.375Z,1.98
2022-11-03T13:16:28.008Z,2.03
2022-11-03T13:18:54.664Z,2.00
2022-11-03T13:21:21.285Z,1.63
2022-11-03T13:23:48.036Z,1.70
2022-11-03T13:26:14.769Z,2.17
2022-11-03T13:28:41.456Z,2.13
2022-11-03T13:31:08.306Z,1.67
2022-11-03T13:33:35.027Z,2.05
2022-11-03T13:36:01.904Z,1.77
2022-11-03T13:38:28.747Z,2.03
2022-11-03T13:40:57.083Z,1.67
2022-11-03T13:43:25.472Z,2.05
2022-11-03T13:45:52.929Z,1.80
2022-11-03T13:49:23.080Z,1.63
2022-11-03T13:51:07.431Z,1.55
2022-11-03T13:56:22.178Z,1.92
2022-11-03T14:01:37.558Z,1.60
2022-11-03T14:06:51.235Z,1.88
2022-11-03T14:09:17.929Z,1.77
2022-11-03T14:12:03.111Z,1.80
2022-11-03T14:14:29.766Z,2.00
2022-11-03T14:16:56.451Z,2.05
2022-11-03T14:19:29.411Z,1.70
2022-11-03T14:22:00.619Z,1.77
2022-11-03T14:24:27.729Z,1.80
2022-11-03T14:26:54.400Z,1.95
2022-11-03T14:29:21.140Z,1.80
2022-11-03T14:31:47.795Z,1.58
2022-11-03T14:34:14.457Z,2.20
2022-11-03T14:36:41.191Z,2.35
2022-11-03T14:39:07.919Z,1.83
2022-11-03T14:41:52.934Z,2.40
2022-11-03T14:44:19.772Z,1.63
2022-11-03T14:46:46.437Z,1.80
2022-11-03T14:49:13.121Z,2.08
2022-11-03T14:51:39.806Z,1.92
2022-11-03T14:54:06.509Z,2.22
2022-11-03T14:56:33.185Z,1.88
2022-11-03T14:58:59.948Z,1.92
2022-11-03T15:01:26.680Z,1.67
2022-11-03T15:03:53.486Z,1.88
2022-11-03T15:06:20.142Z,2.13
2022-11-03T15:08:49.742Z,1.95
2022-11-03T15:11:18.730Z,1.90
2022-11-03T15:13:47.221Z,2.28
2022-11-03T15:16:26.058Z,2.22
2022-11-03T15:18:52.901Z,2.20
2022-11-03T15:21:19.653Z,2.60
2022-11-03T15:26:32.961Z,2.22
2022-11-03T15:28:59.793Z,2.20
2022-11-03T15:31:26.476Z,2.03
2022-11-03T15:33:53.281Z,2.15
2022-11-03T15:36:20.661Z,2.25
2022-11-03T15:38:47.338Z,2.92
2022-11-03T15:41:16.758Z,2.67
2022-11-03T15:43:44.795Z,3.08
2022-11-03T15:46:12.061Z,3.25
2022-11-03T15:48:38.753Z,2.50
2022-11-03T15:51:05.916Z,2.70
2022-11-03T15:53:32.844Z,2.65
2022-11-03T15:55:59.826Z,2.88
2022-11-03T15:58:26.557Z,2.80
2022-11-03T16:00:53.309Z,2.30
2022-11-03T16:03:20.137Z,1.98
2022-11-03T16:05:46.801Z,2.35
2022-11-03T16:08:13.419Z,2.03
2022-11-03T16:10:45.927Z,2.40
2022-11-03T16:13:16.277Z,2.08
2022-11-03T16:15:42.973Z,2.60
2022-11-03T16:18:10.013Z,2.72
2022-11-03T16:20:36.904Z,1.95
2022-11-03T16:23:03.563Z,2.22
2022-11-03T16:25:30.668Z,2.30
2022-11-03T16:27:57.534Z,2.53
2022-11-03T16:30:24.474Z,1.95
2022-11-03T16:32:53.550Z,2.55
2022-11-03T16:35:21.126Z,2.83
2022-11-03T16:37:47.862Z,3.10
2022-11-03T16:40:18.952Z,2.88
2022-11-03T16:42:46.573Z,2.78
2022-11-03T16:45:19.111Z,2.80
2022-11-03T16:47:47.319Z,3.13
2022-11-03T16:50:16.144Z,2.38
2022-11-03T16:52:43.509Z,2.60
2022-11-03T16:55:11.979Z,2.60
2022-11-03T16:57:39.660Z,2.60
2022-11-03T17:00:10.689Z,2.90
2022-11-03T17:02:37.340Z,3.00
2022-11-03T17:05:04.556Z,2.83
2022-11-03T17:07:31.524Z,2.67
2022-11-03T17:09:58.248Z,3.38
2022-11-03T17:12:25.094Z,3.33
2022-11-03T17:14:55.622Z,3.67
2022-11-03T17:17:23.779Z,3.55
2022-11-03T17:19:51.045Z,3.17
2022-11-03T17:22:18.054Z,3.42
2022-11-03T17:24:44.936Z,3.35
2022-11-03T17:27:23.360Z,4.25
2022-11-03T17:29:55.536Z,3.92
2022-11-03T17:32:37.959Z,3.78
2022-11-03T17:35:14.190Z,4.65
2022-11-03T17:37:41.061Z,4.38
2022-11-03T17:40:19.308Z,4.60
2022-11-03T17:42:46.500Z,4.30
2022-11-03T17:45:15.405Z,4.40
2022-11-03T17:47:42.853Z,3.80
2022-11-03T17:50:14.740Z,3.88
2022-11-03T17:52:42.545Z,3.72
2022-11-03T17:55:22.777Z,4.07
2022-11-03T17:57:50.144Z,5.00
2022-11-03T18:00:20.591Z,4.88
2022-11-03T18:02:50.284Z,4.43
2022-11-03T18:05:32.581Z,4.07
2022-11-03T18:08:02.292Z,4.95
2022-11-03T18:10:32.982Z,4.22
2022-11-03T18:13:18.206Z,5.22
2022-11-03T18:15:47.671Z,5.40
2022-11-03T18:18:26.154Z,4.47
2022-11-03T18:20:54.013Z,6.18
2022-11-03T18:23:26.043Z,6.28
2022-11-03T18:25:53.894Z,5.43
2022-11-03T18:28:21.038Z,6.28
2022-11-03T18:30:49.970Z,5.57
2022-11-03T18:33:23.795Z,5.60
2022-11-03T18:35:51.062Z,5.50
2022-11-03T18:38:18.140Z,5.78
2022-11-03T18:40:48.152Z,5.00
2022-11-03T18:43:19.293Z,5.80
2022-11-03T18:45:46.547Z,5.88
2022-11-03T18:48:19.278Z,5.72
2022-11-03T18:50:51.294Z,6.45
2022-11-03T18:53:20.512Z,6.65
2022-11-03T18:55:48.905Z,7.22
2022-11-03T18:58:17.691Z,5.43
2022-11-03T19:00:44.992Z,7.20
2022-11-03T19:03:19.774Z,6.55
2022-11-03T19:05:49.179Z,5.90
2022-11-03T19:08:33.012Z,5.70
2022-11-03T19:11:04.028Z,5.65
2022-11-03T19:13:51.272Z,6.10
2022-11-03T19:16:20.794Z,5.72
2022-11-03T19:18:48.052Z,5.40
2022-11-03T19:21:20.760Z,5.95
2022-11-03T19:23:55.476Z,5.15
2022-11-03T19:26:42.546Z,5.50
2022-11-03T19:29:33.117Z,5.22
2022-11-03T19:32:00.849Z,5.82
2022-11-03T19:34:32.627Z,5.50
2022-11-03T19:36:59.323Z,5.80
2022-11-03T19:39:38.208Z,5.60
2022-11-03T19:42:28.412Z,5.75
2022-11-03T19:44:59.963Z,5.63
2022-11-03T19:47:32.509Z,5.05
2022-11-03T19:50:04.733Z,5.70
2022-11-03T19:52:32.610Z,5.00
2022-11-03T19:55:02.493Z,5.00
2022-11-03T19:57:29.379Z,4.93
2022-11-03T19:59:59.120Z,5.03
2022-11-03T20:02:28.367Z,6.40
2022-11-03T20:04:55.252Z,5.30
2022-11-03T20:07:23.516Z,5.68
2022-11-03T20:09:52.301Z,5.30
2022-11-03T20:12:19.892Z,4.72
2022-11-03T20:14:47.554Z,5.05
2022-11-03T20:17:17.310Z,4.80
2022-11-03T20:19:44.641Z,4.22
2022-11-03T20:22:19.826Z,4.57
2022-11-03T20:24:48.299Z,4.32
2022-11-03T20:27:17.660Z,4.40
2022-11-03T20:29:44.521Z,4.47
2022-11-03T20:32:15.103Z,4.40
2022-11-03T20:34:42.366Z,4.88
2022-11-03T20:37:17.956Z,4.45
2022-11-03T20:39:46.389Z,4.50
2022-11-03T20:42:23.062Z,4.78
2022-11-03T20:44:50.516Z,5.28
2022-11-03T20:47:17.853Z,5.20
2022-11-03T20:49:48.369Z,4.78
2022-11-03T20:52:15.412Z,5.05
2022-11-03T20:54:43.448Z,5.80
2022-11-03T20:57:13.914Z,5.00
2022-11-03T20:59:41.467Z,5.40
2022-11-03T21:02:12.859Z,5.00
2022-11-03T21:04:41.278Z,5.70
2022-11-03T21:07:11.711Z,7.00
2022-11-03T21:09:38.595Z,7.38
2022-11-03T21:12:06.029Z,5.75
2022-11-03T21:14:39.059Z,7.63
2022-11-03T21:17:31.758Z,7.25
2022-11-03T21:19:58.430Z,7.93
2022-11-03T21:25:21.628Z,7.60
2022-11-03T21:27:49.569Z,6.50
2022-11-03T21:30:17.440Z,5.55
2022-11-03T21:32:44.208Z,5.18
2022-11-03T21:35:19.183Z,5.93
2022-11-03T21:37:46.014Z,6.25
2022-11-03T21:40:12.789Z,5.28
2022-11-03T21:42:58.312Z,5.80
2022-11-03T21:45:25.485Z,5.35
2022-11-03T21:48:14.072Z,5.60
2022-11-03T21:50:42.139Z,6.22
2022-11-03T21:53:09.337Z,5.20
2022-11-03T21:55:36.531Z,5.22
2022-11-03T21:58:03.793Z,5.88
2022-11-03T22:00:30.953Z,6.43
2022-11-03T22:02:59.215Z,3.97
2022-11-03T22:05:26.463Z,3.50
2022-11-03T22:07:53.401Z,4.15
2022-11-03T22:10:20.741Z,3.97
2022-11-03T22:12:47.753Z,3.22
2022-11-03T22:15:33.194Z,2.75
2022-11-03T22:18:07.305Z,2.97
2022-11-03T22:20:55.145Z,3.42
2022-11-03T22:23:40.578Z,3.83
2022-11-03T22:26:31.078Z,3.40
2022-11-03T22:29:17.272Z,3.97
2022-11-03T22:31:44.294Z,3.90
2022-11-03T22:34:29.342Z,4.28
2022-11-03T22:36:56.351Z,3.70
2022-11-03T22:39:41.716Z,3.58
2022-11-03T22:42:30.086Z,4.18
2022-11-03T22:45:15.513Z,4.00
2022-11-03T22:47:42.192Z,4.82
2022-11-03T22:50:09.352Z,4.35
2022-11-03T22:52:36.296Z,3.63
2022-11-03T22:55:03.318Z,4.30
2022-11-03T22:57:30.194Z,3.58
2022-11-03T22:59:56.854Z,3.67
2022-11-03T23:02:23.564Z,2.95
2022-11-03T23:04:50.274Z,3.00
2022-11-03T23:07:17.153Z,2.88
2022-11-03T23:09:43.992Z,2.95
2022-11-03T23:12:11.183Z,3.65
2022-11-03T23:14:56.596Z,3.08
2022-11-03T23:17:43.293Z,2.90
2022-11-03T23:20:28.720Z,2.97
2022-11-03T23:22:55.402Z,3.00
2022-11-03T23:25:22.122Z,3.13
2022-11-03T23:27:48.960Z,2.60
2022-11-03T23:30:15.642Z,3.13
2022-11-03T23:32:42.374Z,2.97
2022-11-03T23:35:09.658Z,3.30
2022-11-03T23:37:36.460Z,3.78
2022-11-03T23:40:03.277Z,3.70
2022-11-03T23:42:30.018Z,3.33
2022-11-03T23:45:15.186Z,3.28
2022-11-03T23:48:14.200Z,3.17
2022-11-03T23:50:43.484Z,3.17
2022-11-03T23:53:10.313Z,2.97
2022-11-03T23:55:56.963Z,2.85
2022-11-03T23:58:23.667Z,3.00
